Time;durP1;ratioP1;P1;durP2;ratioP2;P2;SDS_P1;SDS_P2;PMS_P1;PMS_P2;Temp;Humidity;BMP_temperature;BMP_pressure;BME280_temperature;BME280_humidity;BME280_pressure;Samples;Min_cycle;Max_cycle;Signal;HPM_P1;HPM_P2
2023/04/27 00:01:35;;;;;;;8.30;3.40;;;6.90;99.90;;;;;;5070423;28;20064;-46
2023/04/27 00:04:06;;;;;;;5.95;2.50;;;6.90;99.90;;;;;;5070115;28;20044;-47
2023/04/27 00:06:33;;;;;;;5.15;2.92;;;6.90;99.90;;;;;;5070925;28;20051;-46
2023/04/27 00:09:00;;;;;;;4.53;2.80;;;6.90;99.90;;;;;;5065710;28;20036;-47
2023/04/27 00:11:27;;;;;;;;;;;6.80;99.90;;;;;;5071226;28;20811;-46
2023/04/27 00:13:54;;;;;;;5.28;2.70;;;6.80;99.90;;;;;;5070734;28;19920;-46
2023/04/27 00:16:21;;;;;;;5.72;3.15;;;6.80;99.90;;;;;;5063930;28;20090;-46
2023/04/27 00:18:48;;;;;;;10.20;3.53;;;6.70;99.90;;;;;;5070196;28;20048;-46
2023/04/27 00:21:15;;;;;;;6.32;3.05;;;6.80;99.90;;;;;;5069171;28;20094;-47
2023/04/27 00:23:41;;;;;;;3.67;2.50;;;6.70;99.90;;;;;;5070611;28;20555;-46
2023/04/27 00:26:08;;;;;;;5.00;2.92;;;6.80;99.90;;;;;;5064551;28;20041;-45
2023/04/27 00:28:37;;;;;;;4.35;2.72;;;6.90;99.90;;;;;;5046845;28;20037;-46
2023/04/27 00:31:04;;;;;;;5.28;2.70;;;6.90;99.90;;;;;;5068746;28;20049;-45
2023/04/27 00:33:31;;;;;;;11.48;3.33;;;6.80;99.90;;;;;;5070765;28;20101;-46
2023/04/27 00:36:01;;;;;;;6.38;3.20;;;6.70;99.90;;;;;;5057655;28;20090;-46
2023/04/27 00:38:29;;;;;;;7.07;3.92;;;6.60;99.90;;;;;;5045818;28;20102;-46
2023/04/27 00:41:01;;;;;;;6.03;2.80;;;6.60;99.90;;;;;;5052064;28;20064;-47
2023/04/27 00:43:28;;;;;;;5.90;2.85;;;6.60;99.90;;;;;;5049221;28;20094;-46
2023/04/27 00:45:55;;;;;;;5.32;3.42;;;6.60;99.90;;;;;;5050728;28;20536;-46
2023/04/27 00:48:23;;;;;;;10.32;3.78;;;6.70;99.90;;;;;;5034498;28;20052;-46
2023/04/27 00:50:50;;;;;;;7.75;3.42;;;6.60;99.90;;;;;;5068372;28;20036;-46
2023/04/27 00:53:17;;;;;;;7.78;3.58;;;6.60;99.90;;;;;;5078258;28;20445;-46
2023/04/27 00:55:45;;;;;;;7.45;3.47;;;6.60;99.90;;;;;;5051472;28;20082;-46
2023/04/27 00:58:12;;;;;;;6.30;3.65;;;6.60;99.90;;;;;;5054822;28;20508;-47
2023/04/27 01:00:39;;;;;;;8.05;4.78;;;6.60;99.90;;;;;;5066578;28;20045;-46
2023/04/27 01:03:06;;;;;;;;;;;6.60;99.90;;;;;;5044181;28;20045;-45
2023/04/27 01:05:34;;;;;;;10.55;4.53;;;6.70;99.90;;;;;;5068887;28;19921;-47
2023/04/27 01:08:02;;;;;;;10.50;4.13;;;6.70;99.90;;;;;;5052304;28;20045;-45
2023/04/27 01:10:28;;;;;;;8.35;3.92;;;6.70;99.90;;;;;;5060094;28;20659;-48
2023/04/27 01:12:56;;;;;;;5.88;3.22;;;6.70;99.90;;;;;;5067709;28;20205;-46
2023/04/27 01:15:23;;;;;;;6.82;3.88;;;6.70;99.90;;;;;;5055360;28;20055;-47
2023/04/27 01:17:56;;;;;;;7.78;3.40;;;6.80;99.90;;;;;;5055777;28;20547;-46
2023/04/27 01:20:24;;;;;;;6.20;3.72;;;6.80;99.90;;;;;;5049691;28;20067;-45
2023/04/27 01:22:52;;;;;;;9.35;3.70;;;6.80;99.90;;;;;;5072662;28;20036;-47
2023/04/27 01:25:19;;;;;;;7.22;3.10;;;6.80;99.90;;;;;;5055334;28;20493;-47
2023/04/27 01:27:45;;;;;;;10.73;3.28;;;6.90;99.90;;;;;;5054502;28;20068;-45
2023/04/27 01:30:12;;;;;;;7.22;2.78;;;6.90;99.90;;;;;;5060057;28;20509;-46
2023/04/27 01:32:39;;;;;;;5.32;3.10;;;7.00;99.90;;;;;;5055607;28;20087;-46
2023/04/27 01:35:06;;;;;;;7.97;2.80;;;6.90;99.90;;;;;;5073370;28;20054;-45
2023/04/27 01:37:33;;;;;;;7.90;3.08;;;6.90;99.90;;;;;;5054570;28;20052;-46
2023/04/27 01:40:00;;;;;;;6.32;3.28;;;6.90;99.90;;;;;;5057823;28;20088;-45
2023/04/27 01:42:27;;;;;;;5.75;3.63;;;7.00;99.90;;;;;;5073314;28;20037;-45
2023/04/27 01:44:54;;;;;;;8.88;3.72;;;7.00;99.90;;;;;;5051086;28;20068;-45
2023/04/27 01:47:21;;;;;;;5.90;3.35;;;7.00;99.90;;;;;;5055269;28;20086;-45
2023/04/27 01:49:47;;;;;;;6.20;3.40;;;7.00;99.90;;;;;;5053760;28;20097;-46
2023/04/27 01:52:14;;;;;;;5.15;3.25;;;7.10;99.90;;;;;;5055348;28;20052;-46
2023/04/27 01:54:41;;;;;;;5.43;3.13;;;7.10;99.90;;;;;;5052043;28;20493;-47
2023/04/27 01:57:08;;;;;;;;;;;7.10;99.90;;;;;;5053984;28;20072;-46
2023/04/27 01:59:35;;;;;;;6.80;2.92;;;7.10;99.90;;;;;;5053266;28;19920;-47
2023/04/27 02:02:02;;;;;;;4.47;3.10;;;7.00;99.90;;;;;;5054863;28;20497;-46
2023/04/27 02:04:29;;;;;;;6.50;3.40;;;7.00;99.90;;;;;;5066415;28;20036;-46
2023/04/27 02:06:57;;;;;;;6.13;3.58;;;7.00;99.90;;;;;;5054967;28;20056;-46
2023/04/27 02:09:23;;;;;;;5.97;3.95;;;6.90;99.90;;;;;;5072288;28;20114;-46
2023/04/27 02:11:50;;;;;;;9.50;3.55;;;6.90;99.90;;;;;;5072891;28;20098;-46
2023/04/27 02:14:17;;;;;;;8.38;3.80;;;6.90;99.90;;;;;;5053222;28;20045;-45
2023/04/27 02:16:45;;;;;;;12.30;4.30;;;6.80;99.90;;;;;;5054710;28;20136;-45
2023/04/27 02:19:12;;;;;;;9.90;4.00;;;6.80;99.90;;;;;;5054083;28;20056;-45
2023/04/27 02:21:40;;;;;;;7.43;4.18;;;6.80;99.90;;;;;;5050733;28;20456;-46
2023/04/27 02:24:08;;;;;;;12.60;4.22;;;6.80;99.90;;;;;;5071047;28;20040;-46
2023/04/27 02:26:35;;;;;;;9.00;4.30;;;6.80;99.90;;;;;;5054004;28;20044;-46
2023/04/27 02:29:02;;;;;;;7.18;3.72;;;6.90;99.90;;;;;;5071011;28;20051;-46
2023/04/27 02:31:30;;;;;;;7.85;4.15;;;6.90;99.90;;;;;;5068732;28;20041;-46
2023/04/27 02:33:56;;;;;;;6.97;4.10;;;6.90;99.90;;;;;;5051547;28;20127;-46
2023/04/27 02:36:24;;;;;;;5.45;3.67;;;6.90;99.90;;;;;;5071815;28;20045;-46
2023/04/27 02:38:53;;;;;;;6.88;3.70;;;7.00;99.90;;;;;;5053898;28;20131;-46
2023/04/27 02:41:20;;;;;;;9.80;4.38;;;6.90;99.90;;;;;;5044770;28;20095;-46
2023/04/27 02:43:50;;;;;;;8.75;3.55;;;6.90;99.90;;;;;;5054342;28;20040;-47
2023/04/27 02:46:17;;;;;;;4.45;3.20;;;6.90;99.90;;;;;;5053915;28;20075;-45
2023/04/27 02:48:43;;;;;;;6.72;3.78;;;6.90;99.90;;;;;;5053730;28;20055;-46
2023/04/27 02:51:10;;;;;;;4.38;3.00;;;6.90;99.90;;;;;;5048654;28;20045;-47
2023/04/27 02:53:37;;;;;;;5.60;3.30;;;7.00;99.90;;;;;;5071834;28;20497;-45
2023/04/27 02:56:04;;;;;;;4.57;3.17;;;6.90;99.90;;;;;;5051160;28;20045;-46
2023/04/27 02:58:31;;;;;;;4.43;2.47;;;6.90;99.90;;;;;;5053603;28;20493;-46
2023/04/27 03:00:57;;;;;;;7.65;3.10;;;6.90;99.90;;;;;;5052964;28;20052;-45
2023/04/27 03:03:24;;;;;;;5.07;3.45;;;7.00;99.90;;;;;;5053990;28;20060;-46
2023/04/27 03:05:51;;;;;;;3.72;2.75;;;7.00;99.90;;;;;;5068939;28;20154;-46
2023/04/27 03:08:18;;;;;;;4.95;3.10;;;7.00;99.90;;;;;;5053300;28;20040;-45
2023/04/27 03:10:44;;;;;;;4.07;2.78;;;7.10;99.90;;;;;;5053577;28;20148;-46
2023/04/27 03:13:13;;;;;;;6.05;3.17;;;7.10;99.90;;;;;;5053831;28;20122;-46
2023/04/27 03:15:42;;;;;;;6.90;2.97;;;7.10;99.90;;;;;;5045678;28;20581;-46
2023/04/27 03:18:10;;;;;;;7.50;3.55;;;7.10;99.90;;;;;;5071274;28;20133;-46
2023/04/27 03:20:36;;;;;;;9.50;4.00;;;7.10;99.90;;;;;;5052821;28;20040;-46
2023/04/27 03:23:03;;;;;;;9.88;3.45;;;7.00;99.90;;;;;;5051650;28;20052;-46
2023/04/27 03:25:30;;;;;;;6.53;3.33;;;6.90;99.90;;;;;;5064232;28;20040;-46
2023/04/27 03:27:57;;;;;;;6.22;3.30;;;6.90;99.90;;;;;;5071136;28;20509;-46
2023/04/27 03:30:24;;;;;;;9.10;3.60;;;6.80;99.90;;;;;;5051572;28;20110;-47
2023/04/27 03:32:50;;;;;;;6.40;3.25;;;6.80;99.90;;;;;;5069930;28;20052;-46
2023/04/27 03:35:17;;;;;;;7.68;4.05;;;6.80;99.90;;;;;;5052152;28;20135;-46
2023/04/27 03:37:44;;;;;;;6.38;3.17;;;6.80;99.90;;;;;;5066759;28;20060;-46
2023/04/27 03:40:13;;;;;;;7.45;3.60;;;6.80;99.90;;;;;;5052396;28;20135;-46
2023/04/27 03:42:40;;;;;;;6.20;3.58;;;6.90;99.90;;;;;;5052367;28;20561;-46
2023/04/27 03:45:07;;;;;;;5.32;3.47;;;6.90;99.90;;;;;;5052633;28;20499;-46
2023/04/27 03:47:34;;;;;;;6.28;3.03;;;6.90;99.90;;;;;;5069004;28;20024;-46
2023/04/27 03:50:01;;;;;;;7.63;3.10;;;6.90;99.90;;;;;;5070268;28;20037;-46
2023/04/27 03:52:27;;;;;;;7.32;3.42;;;6.90;99.90;;;;;;5052496;28;20086;-47
2023/04/27 03:54:54;;;;;;;10.07;3.33;;;6.90;99.90;;;;;;5052480;28;20516;-46
2023/04/27 03:57:21;;;;;;;7.75;3.63;;;7.00;99.90;;;;;;5051113;28;20468;-46
2023/04/27 03:59:48;;;;;;;6.97;4.25;;;6.90;99.90;;;;;;5052490;28;20040;-45
2023/04/27 04:02:16;;;;;;;7.47;3.78;;;6.90;99.90;;;;;;5052293;28;20051;-45
2023/04/27 04:04:43;;;;;;;7.32;4.40;;;6.90;99.90;;;;;;5047702;28;20041;-46
2023/04/27 04:07:10;;;;;;;8.80;4.50;;;6.90;99.90;;;;;;5052456;28;20040;-45
2023/04/27 04:09:37;;;;;;;8.32;4.20;;;6.90;99.90;;;;;;5069976;28;20037;-46
2023/04/27 04:12:04;;;;;;;6.72;3.63;;;6.90;99.90;;;;;;5066109;28;20111;-46
2023/04/27 04:14:56;;;;;;;7.30;3.70;;;6.90;99.90;;;;;;5071060;28;20110;-87
2023/04/27 04:17:41;;;;;;;7.95;3.72;;;6.90;99.90;;;;;;5059017;28;20052;-47
2023/04/27 04:20:09;;;;;;;10.23;3.88;;;6.90;99.90;;;;;;5058989;28;20049;-48
2023/04/27 04:22:37;;;;;;;6.28;3.70;;;6.90;99.90;;;;;;5043330;28;20056;-48
2023/04/27 04:25:05;;;;;;;6.05;3.55;;;6.90;99.90;;;;;;5041109;28;20045;-47
2023/04/27 04:27:32;;;;;;;6.38;3.47;;;6.90;99.90;;;;;;5045492;28;20080;-47
2023/04/27 04:29:59;;;;;;;6.43;3.75;;;6.90;99.90;;;;;;5048093;28;20068;-47
2023/04/27 04:32:30;;;;;;;9.48;4.22;;;6.90;99.90;;;;;;5049591;28;20702;-47
2023/04/27 04:34:57;;;;;;;8.23;3.70;;;6.90;99.90;;;;;;5048110;28;20053;-47
2023/04/27 04:37:25;;;;;;;11.07;4.45;;;6.90;99.90;;;;;;5032378;28;20037;-47
2023/04/27 04:39:51;;;;;;;6.85;3.70;;;7.00;99.90;;;;;;5029467;28;20056;-50
2023/04/27 04:42:19;;;;;;;6.50;4.03;;;7.00;99.90;;;;;;5039191;28;20047;-47
2023/04/27 04:44:46;;;;;;;8.75;4.65;;;7.00;99.90;;;;;;5030844;28;20502;-47
2023/04/27 04:47:13;;;;;;;8.52;3.72;;;7.00;99.90;;;;;;5054074;28;20047;-47
2023/04/27 04:49:39;;;;;;;7.72;4.03;;;7.00;99.90;;;;;;5036114;28;20098;-48
2023/04/27 04:52:06;;;;;;;12.25;5.38;;;7.10;99.90;;;;;;5034739;28;20045;-47
2023/04/27 04:54:33;;;;;;;8.30;4.30;;;7.10;99.90;;;;;;5035298;28;20099;-49
2023/04/27 04:57:02;;;;;;;7.57;5.07;;;7.10;99.90;;;;;;5040455;28;20037;-47
2023/04/27 04:59:33;;;;;;;6.93;4.97;;;7.10;99.90;;;;;;5040519;28;20041;-47
2023/04/27 05:01:59;;;;;;;9.43;5.40;;;7.10;99.90;;;;;;5037168;28;20042;-49
2023/04/27 05:04:27;;;;;;;9.70;5.15;;;7.20;99.90;;;;;;5046389;28;20041;-46
2023/04/27 05:06:54;;;;;;;;;;;7.10;99.90;;;;;;5053043;28;20064;-45
2023/04/27 05:09:21;;;;;;;9.98;5.90;;;7.20;99.90;;;;;;5053343;28;20325;-49
2023/04/27 05:11:48;;;;;;;11.98;6.45;;;7.20;99.90;;;;;;5067267;28;20083;-48
2023/04/27 05:14:15;;;;;;;8.48;5.85;;;7.30;99.90;;;;;;5058435;28;20048;-48
2023/04/27 05:16:41;;;;;;;9.95;5.60;;;7.40;99.90;;;;;;5053842;28;20072;-46
2023/04/27 05:19:08;;;;;;;13.20;6.47;;;7.40;99.90;;;;;;5050729;28;20040;-48
2023/04/27 05:21:35;;;;;;;9.90;4.90;;;7.50;99.90;;;;;;5053735;28;20047;-48
2023/04/27 05:24:02;;;;;;;12.20;5.25;;;7.50;99.90;;;;;;5052519;28;20127;-46
2023/04/27 05:26:29;;;;;;;;;;;7.60;99.90;;;;;;5044432;28;20449;-47
2023/04/27 05:32:24;;;;;;;11.85;6.03;;;7.50;99.90;;;;;;5062984;28;20056;-48
2023/04/27 05:34:51;;;;;;;10.05;5.80;;;7.60;99.90;;;;;;5071826;28;20049;-47
2023/04/27 05:37:18;;;;;;;9.98;4.95;;;7.60;99.90;;;;;;5066877;28;20233;-48
2023/04/27 05:39:45;;;;;;;12.98;5.28;;;7.70;99.90;;;;;;5048580;28;20090;-48
2023/04/27 05:42:12;;;;;;;10.10;5.95;;;7.70;99.90;;;;;;5052350;28;20459;-48
2023/04/27 05:44:38;;;;;;;11.75;5.18;;;7.80;99.90;;;;;;5039528;28;20099;-48
2023/04/27 05:47:05;;;;;;;8.32;5.25;;;7.80;99.90;;;;;;5052609;28;20044;-48
2023/04/27 05:49:32;;;;;;;8.57;5.85;;;7.90;99.90;;;;;;5056307;28;20393;-48
2023/04/27 05:51:59;;;;;;;10.95;6.07;;;8.00;99.90;;;;;;5073174;28;20464;-48
2023/04/27 05:54:26;;;;;;;13.05;6.32;;;8.10;99.90;;;;;;5071929;28;20048;-47
2023/04/27 05:56:53;;;;;;;13.80;7.75;;;8.20;99.90;;;;;;5051334;28;20043;-48
2023/04/27 05:59:20;;;;;;;11.02;5.72;;;8.30;99.90;;;;;;5052100;28;20095;-48
2023/04/27 06:01:47;;;;;;;;;;;8.30;99.90;;;;;;5052146;28;20040;-48
2023/04/27 06:04:14;;;;;;;11.95;5.85;;;8.40;99.90;;;;;;5052588;28;19920;-48
2023/04/27 06:06:41;;;;;;;9.60;5.88;;;8.50;99.90;;;;;;5065704;28;20033;-47
2023/04/27 06:09:08;;;;;;;11.32;5.78;;;8.60;99.90;;;;;;5064126;28;20051;-48
2023/04/27 06:11:34;;;;;;;12.27;5.30;;;8.60;99.90;;;;;;5072369;28;20227;-48
2023/04/27 06:14:01;;;;;;;6.70;5.00;;;8.60;99.90;;;;;;5055596;28;20071;-48
2023/04/27 06:16:28;;;;;;;8.60;5.80;;;8.60;99.90;;;;;;5055760;28;20421;-47
2023/04/27 06:18:55;;;;;;;10.23;5.05;;;8.50;99.90;;;;;;5052325;28;20045;-47
2023/04/27 06:21:21;;;;;;;11.68;5.90;;;8.40;99.90;;;;;;5043762;28;20067;-48
2023/04/27 06:23:48;;;;;;;10.27;5.40;;;8.50;99.90;;;;;;5052496;28;20064;-47
2023/04/27 06:26:15;;;;;;;6.03;4.70;;;8.60;99.90;;;;;;5051715;28;20498;-48
2023/04/27 06:28:41;;;;;;;10.25;5.65;;;8.70;99.90;;;;;;5052346;28;20069;-48
2023/04/27 06:31:08;;;;;;;9.73;5.68;;;8.60;99.90;;;;;;5050958;28;20041;-48
2023/04/27 06:33:35;;;;;;;11.50;5.68;;;8.70;99.90;;;;;;5052577;28;20041;-48
2023/04/27 06:36:02;;;;;;;8.75;5.13;;;8.80;99.90;;;;;;5053990;28;20094;-48
2023/04/27 06:38:28;;;;;;;7.82;4.05;;;8.80;99.90;;;;;;5071371;28;20570;-47
2023/04/27 06:40:55;;;;;;;10.95;5.60;;;9.00;99.90;;;;;;5064317;28;20082;-48
2023/04/27 06:43:22;;;;;;;9.85;6.10;;;9.00;99.90;;;;;;5072099;28;20044;-48
2023/04/27 06:45:49;;;;;;;7.78;5.00;;;9.10;99.90;;;;;;5065326;28;20393;-47
2023/04/27 06:48:16;;;;;;;12.35;5.88;;;9.20;99.90;;;;;;5071942;28;20064;-48
2023/04/27 06:50:43;;;;;;;9.57;6.22;;;9.20;99.90;;;;;;5062628;28;20036;-47
2023/04/27 06:53:10;;;;;;;10.40;6.15;;;9.40;99.90;;;;;;5072101;28;20049;-48
2023/04/27 06:55:36;;;;;;;12.73;5.97;;;9.50;99.90;;;;;;5059690;28;20032;-47
2023/04/27 06:58:03;;;;;;;17.02;6.38;;;9.60;99.90;;;;;;5052126;28;20079;-48
2023/04/27 07:00:30;;;;;;;8.35;5.30;;;9.80;99.90;;;;;;5048242;28;20077;-48
2023/04/27 07:02:57;;;;;;;10.10;6.20;;;9.60;99.90;;;;;;5051767;28;20172;-48
2023/04/27 07:05:24;;;;;;;10.15;6.22;;;9.80;99.90;;;;;;5050882;28;20124;-48
2023/04/27 07:07:51;;;;;;;11.82;6.65;;;9.90;99.90;;;;;;5050677;28;20037;-48
2023/04/27 07:10:18;;;;;;;10.02;6.22;;;9.80;99.90;;;;;;5055419;28;20045;-47
2023/04/27 07:12:45;;;;;;;13.52;5.85;;;9.60;99.90;;;;;;5052022;28;20080;-47
2023/04/27 07:15:12;;;;;;;12.15;7.03;;;9.80;99.90;;;;;;5048397;28;20082;-47
2023/04/27 07:17:38;;;;;;;7.90;5.15;;;10.00;99.90;;;;;;5054339;28;20036;-47
2023/04/27 07:20:07;;;;;;;11.27;5.35;;;10.20;99.90;;;;;;5068809;28;20072;-48
2023/04/27 07:22:34;;;;;;;11.88;6.45;;;10.40;99.90;;;;;;5056032;28;20045;-47
2023/04/27 07:25:00;;;;;;;9.75;5.55;;;10.50;99.90;;;;;;5051292;28;20041;-48
2023/04/27 07:27:27;;;;;;;9.30;5.75;;;10.70;99.90;;;;;;5044104;28;20033;-48
2023/04/27 07:29:54;;;;;;;8.93;4.95;;;10.80;99.90;;;;;;5051104;28;20490;-48
2023/04/27 07:32:21;;;;;;;11.35;4.53;;;10.90;99.90;;;;;;5047360;28;20371;-47
2023/04/27 07:34:49;;;;;;;7.28;4.50;;;10.90;99.90;;;;;;5051423;28;20456;-48
2023/04/27 07:37:20;;;;;;;8.68;5.18;;;10.90;99.90;;;;;;5031922;28;20055;-49
2023/04/27 07:39:49;;;;;;;10.75;5.53;;;10.90;99.90;;;;;;5050833;28;20160;-48
2023/04/27 07:42:16;;;;;;;8.95;4.38;;;10.90;99.90;;;;;;5049009;28;20052;-51
2023/04/27 07:44:43;;;;;;;10.60;4.65;;;11.00;99.90;;;;;;5050989;28;20033;-47
2023/04/27 07:47:09;;;;;;;12.70;5.30;;;11.00;99.90;;;;;;5050378;28;20044;-48
2023/04/27 07:49:37;;;;;;;8.38;5.38;;;11.10;99.90;;;;;;5050861;28;20171;-48
2023/04/27 07:52:04;;;;;;;9.75;5.70;;;10.90;99.90;;;;;;5050848;28;20041;-48
2023/04/27 07:54:31;;;;;;;7.90;5.35;;;11.00;99.90;;;;;;5058717;28;20128;-47
2023/04/27 07:56:57;;;;;;;11.40;5.40;;;11.00;99.90;;;;;;5071014;28;20044;-47
2023/04/27 07:59:27;;;;;;;11.15;5.40;;;11.10;99.90;;;;;;5063271;28;20126;-47
2023/04/27 08:01:54;;;;;;;8.50;4.57;;;11.20;99.90;;;;;;5063128;28;20132;-47
2023/04/27 08:04:32;;;;;;;9.57;4.38;;;11.30;99.90;;;;;;5070343;28;20049;-48
2023/04/27 08:07:00;;;;;;;9.75;5.43;;;11.50;99.90;;;;;;5070446;28;20070;-47
2023/04/27 08:09:27;;;;;;;8.55;4.95;;;11.60;99.90;;;;;;5063838;28;20072;-47
2023/04/27 08:11:56;;;;;;;11.00;4.22;;;11.70;99.90;;;;;;5050916;28;20067;-47
2023/04/27 08:14:22;;;;;;;9.20;4.75;;;11.80;99.90;;;;;;5050726;28;20048;-49
2023/04/27 08:16:50;;;;;;;9.23;5.78;;;12.00;99.90;;;;;;5050831;28;20103;-47
2023/04/27 08:19:17;;;;;;;7.13;4.07;;;12.00;99.90;;;;;;5049981;28;20053;-47
2023/04/27 08:21:44;;;;;;;7.57;4.25;;;12.00;99.90;;;;;;5054916;28;20103;-47
2023/04/27 08:24:11;;;;;;;7.15;3.85;;;12.00;99.90;;;;;;5054829;28;20107;-47
2023/04/27 08:26:40;;;;;;;6.35;4.10;;;12.20;99.90;;;;;;5054774;28;20561;-48
2023/04/27 08:29:06;;;;;;;6.20;3.40;;;12.40;99.90;;;;;;5055448;28;20048;-48
2023/04/27 08:31:52;;;;;;;5.20;3.58;;;12.40;99.90;;;;;;5073401;28;20404;-49
2023/04/27 08:34:22;;;;;;;8.55;4.28;;;12.30;99.90;;;;;;5069145;28;20032;-50
2023/04/27 08:36:48;;;;;;;6.13;3.00;;;12.30;99.90;;;;;;5074234;28;20056;-48
2023/04/27 08:39:16;;;;;;;7.78;3.97;;;12.40;99.90;;;;;;5073746;28;20053;-47
2023/04/27 08:41:43;;;;;;;6.70;3.45;;;12.50;99.90;;;;;;5069289;28;20049;-47
2023/04/27 08:44:10;;;;;;;7.15;3.22;;;12.50;99.90;;;;;;5073567;28;20051;-47
2023/04/27 08:46:37;;;;;;;5.45;3.05;;;12.70;99.90;;;;;;5071325;28;20041;-48
2023/04/27 08:49:06;;;;;;;7.45;3.40;;;12.60;99.90;;;;;;5063474;28;20044;-47
2023/04/27 08:51:33;;;;;;;9.27;4.15;;;12.40;99.90;;;;;;5055680;28;20408;-51
2023/04/27 08:54:00;;;;;;;5.13;3.33;;;12.30;99.90;;;;;;5073915;28;20103;-48
2023/04/27 08:56:28;;;;;;;5.90;3.33;;;12.30;99.90;;;;;;5060280;28;20033;-47
2023/04/27 08:58:56;;;;;;;7.22;3.55;;;12.10;99.90;;;;;;5037422;28;20041;-49
2023/04/27 09:01:24;;;;;;;5.78;3.75;;;12.10;99.90;;;;;;5034483;28;20056;-48
2023/04/27 09:03:58;;;;;;;8.43;4.07;;;12.20;99.90;;;;;;5049307;28;20040;-47
2023/04/27 09:06:33;;;;;;;8.25;3.70;;;12.40;99.90;;;;;;5047963;28;20037;-47
2023/04/27 09:09:01;;;;;;;9.25;4.10;;;12.60;99.90;;;;;;5053825;28;20121;-47
2023/04/27 09:11:32;;;;;;;7.28;3.78;;;12.60;99.90;;;;;;5052981;28;20051;-48
2023/04/27 09:14:02;;;;;;;4.75;3.42;;;12.80;99.90;;;;;;5073972;28;20040;-48
2023/04/27 09:16:30;;;;;;;5.13;3.28;;;12.90;99.90;;;;;;5070239;28;20045;-47
2023/04/27 09:18:57;;;;;;;4.85;3.00;;;13.10;99.90;;;;;;5067591;28;20489;-47
2023/04/27 09:21:28;;;;;;;;;;;13.20;99.90;;;;;;5073514;28;20135;-48
2023/04/27 09:23:55;;;;;;;7.57;2.90;;;13.40;99.90;;;;;;5068160;28;20381;-46
2023/04/27 09:26:25;;;;;;;4.05;2.67;;;13.70;99.90;;;;;;5073864;28;20095;-48
2023/04/27 09:28:56;;;;;;;4.60;2.78;;;13.60;99.90;;;;;;5065617;28;20035;-49
2023/04/27 09:31:33;;;;;;;5.00;2.50;;;13.70;99.90;;;;;;5072208;28;20069;-47
2023/04/27 09:34:01;;;;;;;4.03;2.30;;;13.80;99.90;;;;;;5072770;28;20048;-47
2023/04/27 09:36:29;;;;;;;6.03;3.20;;;13.80;99.90;;;;;;5055404;28;20041;-47
2023/04/27 09:38:57;;;;;;;5.90;2.55;;;14.00;99.90;;;;;;5046924;28;20479;-48
2023/04/27 09:41:24;;;;;;;5.45;2.30;;;14.00;99.90;;;;;;5073673;28;20106;-47
2023/04/27 09:43:52;;;;;;;4.68;2.67;;;14.10;99.90;;;;;;5073057;28;20037;-48
2023/04/27 09:46:23;;;;;;;4.07;2.22;;;14.30;99.90;;;;;;5073841;28;20072;-50
2023/04/27 09:48:51;;;;;;;;;;;14.50;99.90;;;;;;5053036;28;20076;-47
2023/04/27 09:51:17;;;;;;;5.40;2.40;;;14.60;99.90;;;;;;5053651;28;20347;-47
2023/04/27 09:53:50;;;;;;;3.72;2.38;;;14.20;99.90;;;;;;5050841;28;20065;-49
2023/04/27 09:56:55;;;;;;;3.83;2.28;;;14.10;99.90;;;;;;5053164;28;20055;-47
2023/04/27 09:59:33;;;;;;;3.58;2.53;;;14.10;99.90;;;;;;5042508;28;20440;-47
2023/04/27 10:02:02;;;;;;;5.43;3.03;;;13.80;99.90;;;;;;5053070;28;20052;-48
2023/04/27 10:04:52;;;;;;;4.93;2.47;;;14.00;99.90;;;;;;5052405;28;20501;-48
2023/04/27 10:07:19;;;;;;;4.50;3.15;;;13.90;99.90;;;;;;5052518;28;20041;-47
2023/04/27 10:09:48;;;;;;;9.68;2.80;;;14.10;99.90;;;;;;5050559;28;20037;-48
2023/04/27 10:12:21;;;;;;;3.65;2.40;;;14.40;99.90;;;;;;5052961;28;20418;-48
2023/04/27 10:14:56;;;;;;;5.25;2.42;;;14.40;99.90;;;;;;5043532;28;20037;-48
2023/04/27 10:17:30;;;;;;;5.65;2.65;;;14.10;99.90;;;;;;5098027;22;20496;-46
2023/04/27 10:19:59;;;;;;;5.43;2.70;;;13.80;99.90;;;;;;5111266;28;20043;-45
2023/04/27 10:22:46;;;;;;;5.57;2.58;;;13.60;99.90;;;;;;5100025;28;20028;-45
2023/04/27 10:25:17;;;;;;;5.25;2.45;;;13.80;99.90;;;;;;5091020;28;20201;-46
2023/04/27 10:27:56;;;;;;;4.95;2.60;;;14.10;99.90;;;;;;5076509;28;20040;-45
2023/04/27 10:30:26;;;;;;;3.95;2.35;;;14.20;99.90;;;;;;5054653;28;20041;-47
2023/04/27 10:32:58;;;;;;;3.50;2.03;;;14.60;99.90;;;;;;5071999;28;20044;-46
2023/04/27 10:35:33;;;;;;;5.85;2.47;;;14.80;99.90;;;;;;5071572;28;20041;-47
2023/04/27 10:38:16;;;;;;;3.50;2.10;;;14.80;99.90;;;;;;5072296;28;20086;-45
2023/04/27 10:40:44;;;;;;;4.50;2.88;;;14.90;99.90;;;;;;5066275;28;20040;-46
2023/04/27 10:43:16;;;;;;;6.63;2.70;;;15.10;99.90;;;;;;5071716;28;20555;-46
2023/04/27 10:45:43;;;;;;;3.25;2.35;;;14.70;99.90;;;;;;5070547;28;20523;-46
2023/04/27 10:48:16;;;;;;;;;;;14.50;99.90;;;;;;5072293;28;20064;-46
2023/04/27 10:50:43;;;;;;;5.30;2.35;;;14.60;99.90;;;;;;5071650;28;19978;-46
2023/04/27 10:53:10;;;;;;;;;;;14.30;99.90;;;;;;5072522;28;20435;-47
2023/04/27 10:55:37;;;;;;;3.35;2.55;;;14.10;99.90;;;;;;5071767;28;20292;-48
2023/04/27 10:58:04;;;;;;;4.70;2.80;;;13.80;99.90;;;;;;5074761;28;20049;-45
2023/04/27 11:00:32;;;;;;;3.20;2.05;;;13.90;99.90;;;;;;5065626;28;20424;-46
2023/04/27 11:03:17;;;;;;;6.05;2.22;;;14.10;99.90;;;;;;5074136;28;20051;-47
2023/04/27 11:05:46;;;;;;;6.00;2.22;;;14.30;99.90;;;;;;5071254;28;20729;-46
2023/04/27 11:08:16;;;;;;;4.78;2.22;;;14.30;99.90;;;;;;5071127;28;20048;-47
2023/04/27 11:10:49;;;;;;;4.53;2.30;;;14.30;99.90;;;;;;5062197;28;20048;-46
2023/04/27 11:13:21;;;;;;;2.85;2.03;;;14.70;99.90;;;;;;5082881;28;20043;-46
2023/04/27 11:15:54;;;;;;;4.15;1.98;;;14.60;99.90;;;;;;5086581;28;20090;-47
2023/04/27 11:18:23;;;;;;;3.05;1.50;;;15.10;99.90;;;;;;5063113;28;20138;-47
2023/04/27 11:20:52;;;;;;;5.50;1.60;;;15.30;99.90;;;;;;5071458;28;20045;-47
2023/04/27 11:23:27;;;;;;;4.10;2.20;;;15.30;99.90;;;;;;5071639;28;20036;-45
2023/04/27 11:25:55;;;;;;;3.65;1.80;;;15.50;99.90;;;;;;5074661;28;20396;-46
2023/04/27 11:28:23;;;;;;;3.33;1.60;;;15.60;99.90;;;;;;5071106;28;20119;-46
2023/04/27 11:30:59;;;;;;;3.60;1.73;;;15.80;99.90;;;;;;5071301;28;20127;-46
2023/04/27 11:33:27;;;;;;;4.40;1.75;;;15.50;99.90;;;;;;5070581;28;20040;-46
2023/04/27 11:35:55;;;;;;;;;;;15.70;99.90;;;;;;5071897;28;20044;-46
2023/04/27 11:38:22;;;;;;;3.08;1.73;;;15.60;99.60;;;;;;5072109;28;19924;-47
2023/04/27 11:40:59;;;;;;;3.30;1.65;;;15.10;99.90;;;;;;5071244;28;20094;-45
2023/04/27 11:43:26;;;;;;;4.07;1.65;;;15.50;99.90;;;;;;5070248;28;20036;-45
2023/04/27 11:45:54;;;;;;;;;;;15.60;99.90;;;;;;5071884;28;20045;-46
2023/04/27 11:48:26;;;;;;;2.80;1.35;;;16.00;99.90;;;;;;5073276;28;20289;-46
2023/04/27 11:50:52;;;;;;;4.43;1.38;;;16.00;99.60;;;;;;5071372;28;20082;-46
2023/04/27 11:53:36;;;;;;;5.07;1.40;;;16.30;99.90;;;;;;5070148;28;20044;-45
2023/04/27 11:56:06;;;;;;;2.80;1.38;;;16.40;98.20;;;;;;5074785;28;20413;-46
2023/04/27 11:58:35;;;;;;;3.72;1.83;;;16.60;99.10;;;;;;5073169;28;20044;-46
2023/04/27 12:01:03;;;;;;;3.90;1.33;;;16.30;98.50;;;;;;5070815;28;20531;-46
2023/04/27 12:03:30;;;;;;;1.63;1.13;;;16.50;99.00;;;;;;5072082;28;20043;-46
2023/04/27 12:05:57;;;;;;;0.93;0.90;;;16.50;98.60;;;;;;5070602;28;20064;-46
2023/04/27 12:08:42;;;;;;;2.35;1.30;;;16.50;98.70;;;;;;5070407;28;20049;-46
2023/04/27 12:11:08;;;;;;;2.00;1.30;;;16.40;99.40;;;;;;5072880;28;20488;-46
2023/04/27 12:13:35;;;;;;;2.50;1.92;;;16.40;98.50;;;;;;5071392;28;20044;-46
2023/04/27 12:16:02;;;;;;;2.03;1.83;;;16.50;99.20;;;;;;5070958;28;20044;-46
2023/04/27 12:18:29;;;;;;;1.88;1.48;;;16.00;97.40;;;;;;5070529;28;20033;-46
2023/04/27 12:20:56;;;;;;;1.30;1.20;;;15.70;98.70;;;;;;5070068;28;20398;-45
2023/04/27 12:23:27;;;;;;;2.33;1.55;;;15.80;99.20;;;;;;5053308;28;20123;-46
2023/04/27 12:25:53;;;;;;;2.85;1.95;;;16.00;99.60;;;;;;5072060;28;20109;-50
2023/04/27 12:28:20;;;;;;;1.98;1.70;;;16.10;99.60;;;;;;5070450;28;20095;-47
2023/04/27 12:30:48;;;;;;;3.33;1.85;;;16.30;99.40;;;;;;5069517;28;20041;-47
2023/04/27 12:33:15;;;;;;;3.65;2.00;;;16.50;99.20;;;;;;5070725;28;20416;-47
2023/04/27 12:35:42;;;;;;;;;;;16.80;99.60;;;;;;5076126;28;20435;-46
2023/04/27 12:38:09;;;;;;;2.85;1.80;;;17.20;97.60;;;;;;5073530;28;19966;-46
2023/04/27 12:40:36;;;;;;;2.70;1.75;;;17.30;98.10;;;;;;5082504;28;20040;-46
2023/04/27 12:43:02;;;;;;;;;;;17.10;99.00;;;;;;5071210;28;20044;-48
2023/04/27 12:45:29;;;;;;;2.63;1.38;;;16.90;98.50;;;;;;5069588;28;19981;-46
2023/04/27 12:47:56;;;;;;;3.22;1.70;;;16.70;98.20;;;;;;5069682;28;20115;-45
2023/04/27 12:50:26;;;;;;;2.45;1.58;;;16.40;97.50;;;;;;5069596;28;20113;-46
2023/04/27 12:52:53;;;;;;;5.32;1.65;;;16.30;98.30;;;;;;5070450;28;20040;-46
2023/04/27 12:55:20;;;;;;;3.72;2.10;;;16.30;98.60;;;;;;5074926;28;20036;-46
2023/04/27 12:57:59;;;;;;;2.58;1.55;;;16.40;98.40;;;;;;5074424;28;20039;-46
2023/04/27 13:00:26;;;;;;;5.10;2.15;;;16.60;96.30;;;;;;5074023;28;20044;-45
2023/04/27 13:02:53;;;;;;;4.25;2.10;;;16.60;96.70;;;;;;5069113;28;20101;-46
2023/04/27 13:05:21;;;;;;;;;;;16.50;97.20;;;;;;5074242;28;20043;-46